Time;durP1;ratioP1;P1;durP2;ratioP2;P2;SDS_P1;SDS_P2;PMS_P1;PMS_P2;Temp;Humidity;BMP_temperature;BMP_pressure;BME280_temperature;BME280_humidity;BME280_pressure;Samples;Min_cycle;Max_cycle;Signal;HPM_P1;HPM_P2
2021/08/25 00:01:56;;;;;;;7.40;3.67;;;19.30;80.70;;;;;;5050843;28;20027;-60
2021/08/25 00:04:22;;;;;;;4.50;3.38;;;19.30;80.70;;;;;;5035704;28;20032;-60
2021/08/25 00:06:47;;;;;;;4.32;3.75;;;19.30;80.70;;;;;;5053715;28;20438;-60
2021/08/25 00:09:13;;;;;;;3.83;3.38;;;19.30;80.70;;;;;;5068243;28;20476;-60
2021/08/25 00:11:38;;;;;;;7.75;3.45;;;19.30;81.30;;;;;;5064299;28;20025;-59
2021/08/25 00:14:04;;;;;;;7.07;3.40;;;19.30;80.60;;;;;;5068550;28;20043;-60
2021/08/25 00:16:30;;;;;;;5.50;3.35;;;19.30;80.70;;;;;;5056130;28;20032;-60
2021/08/25 00:18:55;;;;;;;5.03;2.90;;;19.30;80.60;;;;;;5030438;28;20039;-60
2021/08/25 00:21:21;;;;;;;3.60;3.17;;;19.20;80.50;;;;;;5050072;28;20068;-60
2021/08/25 00:23:46;;;;;;;4.13;3.72;;;19.20;80.50;;;;;;5068838;28;20637;-60
2021/08/25 00:26:12;;;;;;;6.50;4.47;;;19.30;80.60;;;;;;5070344;28;20029;-60
2021/08/25 00:28:37;;;;;;;5.57;4.28;;;19.30;80.60;;;;;;5043060;28;21499;-60
2021/08/25 00:31:03;;;;;;;5.63;4.20;;;19.20;80.50;;;;;;5064802;28;20988;-60
2021/08/25 00:33:28;;;;;;;4.85;4.30;;;19.20;80.60;;;;;;5043592;28;20040;-60
2021/08/25 00:35:54;;;;;;;4.75;4.00;;;19.20;80.50;;;;;;5068377;28;20064;-60
2021/08/25 00:38:19;;;;;;;6.57;3.85;;;19.20;80.50;;;;;;5068277;28;20444;-60
2021/08/25 00:40:45;;;;;;;4.10;3.33;;;19.20;80.60;;;;;;5064581;28;20024;-60
2021/08/25 00:43:11;;;;;;;4.30;3.90;;;19.20;80.50;;;;;;5063513;28;20519;-60
2021/08/25 00:45:37;;;;;;;7.50;3.83;;;19.20;81.20;;;;;;5049677;28;20400;-60
2021/08/25 00:48:04;;;;;;;4.78;3.63;;;19.20;80.50;;;;;;5065337;28;20055;-60
2021/08/25 00:50:29;;;;;;;3.83;3.42;;;19.20;80.50;;;;;;5067363;28;20024;-60
2021/08/25 00:52:55;;;;;;;3.63;3.33;;;19.20;80.60;;;;;;5046421;28;20097;-60
2021/08/25 00:55:20;;;;;;;5.50;3.20;;;19.20;80.60;;;;;;5065053;28;20120;-60
2021/08/25 00:57:46;;;;;;;3.30;3.00;;;19.20;80.60;;;;;;5068512;28;20156;-60
2021/08/25 01:00:12;;;;;;;4.30;3.63;;;19.20;80.60;;;;;;5029790;28;20028;-60
2021/08/25 01:02:42;;;;;;;4.53;3.47;;;19.20;80.50;;;;;;5051943;28;20063;-60
2021/08/25 01:05:08;;;;;;;4.15;3.72;;;19.20;80.50;;;;;;5035316;28;20020;-59
2021/08/25 01:07:35;;;;;;;3.63;3.00;;;19.20;80.50;;;;;;5050408;28;20043;-59
2021/08/25 01:10:23;;;;;;;4.30;3.50;;;19.20;80.50;;;;;;5029300;28;20468;-60
2021/08/25 01:12:49;;;;;;;3.85;3.45;;;19.20;80.60;;;;;;5049994;28;20024;-60
2021/08/25 01:15:14;;;;;;;3.30;2.90;;;19.20;80.60;;;;;;5058836;28;20503;-60
2021/08/25 01:17:40;;;;;;;4.03;3.40;;;19.20;81.30;;;;;;5049179;28;20098;-60
2021/08/25 01:20:10;;;;;;;3.92;3.05;;;19.10;80.50;;;;;;5047725;28;20121;-60
2021/08/25 01:22:35;;;;;;;3.63;3.28;;;19.20;80.60;;;;;;5045289;28;20388;-60
2021/08/25 01:25:01;;;;;;;3.58;3.03;;;19.10;80.50;;;;;;5066701;28;20089;-61
2021/08/25 01:27:28;;;;;;;3.35;3.05;;;19.20;80.60;;;;;;5040857;28;20032;-60
2021/08/25 01:29:53;;;;;;;4.65;2.95;;;19.10;80.50;;;;;;5034765;28;20414;-60
2021/08/25 01:32:19;;;;;;;4.13;2.92;;;19.10;80.50;;;;;;5046975;28;20020;-60
2021/08/25 01:34:55;;;;;;;4.43;3.10;;;19.10;80.50;;;;;;5065937;28;20028;-60
2021/08/25 01:37:21;;;;;;;3.10;2.53;;;19.10;80.50;;;;;;5046146;28;20032;-60
2021/08/25 01:39:48;;;;;;;3.17;2.65;;;19.10;80.50;;;;;;5047995;28;20048;-60
2021/08/25 01:42:14;;;;;;;4.22;3.00;;;19.10;80.50;;;;;;5067054;28;20028;-60
2021/08/25 01:44:39;;;;;;;3.53;3.17;;;19.10;80.50;;;;;;5049440;28;20025;-60
2021/08/25 01:47:05;;;;;;;4.30;3.45;;;19.10;80.50;;;;;;5066505;28;20471;-59
2021/08/25 01:49:30;;;;;;;4.50;4.10;;;19.10;80.50;;;;;;5043241;28;20024;-60
2021/08/25 01:51:58;;;;;;;4.95;4.45;;;19.10;80.50;;;;;;5043827;28;20032;-60
2021/08/25 01:54:24;;;;;;;4.97;4.47;;;19.10;80.50;;;;;;5040853;28;20035;-60
2021/08/25 01:56:49;;;;;;;4.82;3.90;;;19.10;80.40;;;;;;5043366;28;20101;-60
2021/08/25 01:59:15;;;;;;;6.70;3.85;;;19.10;80.40;;;;;;5030804;28;20040;-61
2021/08/25 02:01:40;;;;;;;4.80;3.85;;;19.10;80.40;;;;;;5069855;28;20033;-60
2021/08/25 02:04:06;;;;;;;3.95;3.03;;;19.10;80.40;;;;;;5049105;28;20624;-60
2021/08/25 02:06:31;;;;;;;3.25;2.88;;;19.00;80.40;;;;;;5066082;28;20543;-60
2021/08/25 02:08:57;;;;;;;3.60;3.30;;;19.00;80.40;;;;;;5053815;28;20020;-60
2021/08/25 02:11:23;;;;;;;3.72;3.38;;;19.10;80.40;;;;;;5048636;28;20029;-60
2021/08/25 02:13:48;;;;;;;3.42;3.13;;;19.10;80.40;;;;;;5048897;28;20025;-60
2021/08/25 02:16:14;;;;;;;3.72;3.00;;;19.10;80.40;;;;;;5045415;28;20048;-60
2021/08/25 02:18:39;;;;;;;6.15;3.63;;;19.00;80.30;;;;;;5062311;28;20087;-60
2021/08/25 02:21:05;;;;;;;5.20;3.20;;;19.00;80.30;;;;;;5062214;28;20094;-60
2021/08/25 02:23:30;;;;;;;4.43;3.10;;;19.00;80.30;;;;;;5051501;28;20028;-60
2021/08/25 02:25:56;;;;;;;4.53;3.13;;;19.00;80.30;;;;;;5044500;28;20028;-60
2021/08/25 02:28:21;;;;;;;6.70;3.35;;;19.00;80.30;;;;;;5046185;28;20020;-60
2021/08/25 02:30:47;;;;;;;3.85;3.13;;;19.00;80.30;;;;;;5065185;28;20040;-60
2021/08/25 02:33:12;;;;;;;4.10;3.28;;;19.00;80.30;;;;;;5047778;28;20502;-60
2021/08/25 02:35:38;;;;;;;4.97;2.90;;;19.00;80.30;;;;;;5067497;28;20024;-60
2021/08/25 02:38:03;;;;;;;5.18;3.05;;;19.00;80.30;;;;;;5025583;28;20092;-60
2021/08/25 02:40:29;;;;;;;4.25;3.20;;;19.00;80.30;;;;;;5028992;28;20069;-60
2021/08/25 02:42:55;;;;;;;7.40;3.45;;;19.00;80.30;;;;;;5046950;28;20032;-60
2021/08/25 02:45:21;;;;;;;4.07;3.15;;;19.00;80.30;;;;;;5061423;28;20028;-60
2021/08/25 02:47:46;;;;;;;3.40;2.83;;;19.00;80.40;;;;;;5062117;28;20384;-60
2021/08/25 02:50:12;;;;;;;2.83;2.60;;;19.00;80.40;;;;;;5061388;28;20039;-60
2021/08/25 02:52:37;;;;;;;3.30;2.95;;;19.00;80.40;;;;;;5061055;28;20023;-60
2021/08/25 02:55:03;;;;;;;3.35;2.85;;;18.90;80.30;;;;;;5071207;28;20764;-59
2021/08/25 02:57:29;;;;;;;3.33;3.03;;;18.90;80.40;;;;;;5025971;28;20024;-60
2021/08/25 02:59:54;;;;;;;3.13;2.70;;;18.90;80.40;;;;;;5049765;28;20175;-60
2021/08/25 03:02:20;;;;;;;3.90;3.05;;;18.90;80.40;;;;;;5046176;28;20057;-60
2021/08/25 03:04:45;;;;;;;3.83;2.90;;;18.90;80.40;;;;;;5064039;28;20032;-60
2021/08/25 03:07:11;;;;;;;3.92;2.85;;;18.90;80.50;;;;;;5062953;28;20032;-60
2021/08/25 03:09:36;;;;;;;3.38;2.90;;;18.90;80.50;;;;;;5043640;28;20024;-60
2021/08/25 03:12:02;;;;;;;5.22;3.10;;;18.90;80.60;;;;;;5047457;28;20139;-60
2021/08/25 03:14:27;;;;;;;4.90;2.90;;;18.90;80.60;;;;;;5043166;28;20056;-60
2021/08/25 03:16:53;;;;;;;4.45;3.00;;;18.90;80.60;;;;;;5063483;28;20604;-60
2021/08/25 03:19:18;;;;;;;13.80;4.05;;;18.90;80.80;;;;;;5034575;28;20060;-60
2021/08/25 03:21:44;;;;;;;18.23;4.05;;;18.90;80.70;;;;;;5062738;28;20067;-61
2021/08/25 03:24:10;;;;;;;69.07;7.82;;;18.80;80.80;;;;;;5070426;28;20060;-60
2021/08/25 03:26:35;;;;;;;51.63;6.40;;;18.80;80.80;;;;;;5066822;28;20032;-59
2021/08/25 03:29:01;;;;;;;56.53;6.55;;;18.80;80.90;;;;;;5044689;28;20032;-60
2021/08/25 03:31:26;;;;;;;61.55;6.82;;;18.80;80.80;;;;;;5054720;28;20032;-60
2021/08/25 03:33:52;;;;;;;36.22;6.85;;;18.80;80.80;;;;;;5034677;28;20038;-60
2021/08/25 03:36:17;;;;;;;47.85;6.40;;;18.80;81.00;;;;;;5065534;28;20025;-60
2021/08/25 03:38:43;;;;;;;34.25;7.47;;;18.80;80.90;;;;;;5065888;28;20032;-60
2021/08/25 03:41:08;;;;;;;42.13;6.03;;;18.80;80.90;;;;;;5048864;28;20114;-60
2021/08/25 03:43:34;;;;;;;32.65;5.80;;;18.80;80.90;;;;;;5067932;28;20356;-60
2021/08/25 03:45:59;;;;;;;33.15;5.32;;;18.80;81.00;;;;;;5047360;28;20195;-60
2021/08/25 03:48:25;;;;;;;34.97;5.53;;;18.80;81.00;;;;;;5052079;28;20033;-59
2021/08/25 03:50:50;;;;;;;41.13;5.53;;;18.80;81.00;;;;;;5048215;28;20752;-60
2021/08/25 03:53:16;;;;;;;39.75;5.60;;;18.80;81.00;;;;;;5066225;28;20040;-60
2021/08/25 03:55:42;;;;;;;33.95;6.30;;;18.80;81.00;;;;;;5063407;28;20492;-60
2021/08/25 03:58:08;;;;;;;28.25;5.10;;;18.80;81.00;;;;;;5063314;28;20016;-60
2021/08/25 04:00:33;;;;;;;30.17;5.45;;;18.80;81.00;;;;;;5053657;28;20033;-60
2021/08/25 04:02:59;;;;;;;42.92;5.68;;;18.80;81.20;;;;;;5054763;28;20085;-60
2021/08/25 04:05:24;;;;;;;30.77;5.82;;;18.80;81.40;;;;;;5048489;28;20081;-60
2021/08/25 04:07:50;;;;;;;40.75;6.00;;;18.70;81.80;;;;;;5029986;28;20113;-60
2021/08/25 04:10:15;;;;;;;25.70;6.53;;;18.70;82.00;;;;;;5074839;28;20471;-60
2021/08/25 04:12:41;;;;;;;32.10;5.20;;;18.70;82.10;;;;;;5066971;28;20049;-60
2021/08/25 04:15:07;;;;;;;28.27;5.25;;;18.70;82.10;;;;;;5054404;28;20040;-60
2021/08/25 04:17:32;;;;;;;24.17;5.53;;;18.70;82.20;;;;;;5031748;28;20087;-60
2021/08/25 04:19:58;;;;;;;25.48;4.60;;;18.70;82.10;;;;;;5054551;28;20463;-60
2021/08/25 04:22:24;;;;;;;29.08;5.32;;;18.70;82.20;;;;;;5066945;28;20495;-60
2021/08/25 04:24:50;;;;;;;27.55;4.70;;;18.70;82.20;;;;;;5050371;28;20408;-60
2021/08/25 04:27:15;;;;;;;18.02;4.22;;;18.70;82.10;;;;;;5042478;28;20040;-60
2021/08/25 04:29:41;;;;;;;25.38;4.95;;;18.70;82.40;;;;;;5071153;28;20024;-60
2021/08/25 04:32:06;;;;;;;22.35;4.55;;;18.70;82.40;;;;;;5068317;28;20024;-60
2021/08/25 04:34:32;;;;;;;26.17;4.57;;;18.70;82.60;;;;;;5033582;28;20051;-60
2021/08/25 04:36:57;;;;;;;146.75;13.05;;;18.70;82.70;;;;;;5052908;28;20035;-60
2021/08/25 04:39:23;;;;;;;117.68;10.85;;;18.70;82.60;;;;;;5063847;28;20043;-60
2021/08/25 04:41:48;;;;;;;76.03;7.35;;;18.70;82.70;;;;;;5050906;28;20178;-60
2021/08/25 04:44:14;;;;;;;35.63;5.10;;;18.60;82.50;;;;;;5052874;28;20028;-60
2021/08/25 04:46:39;;;;;;;28.20;4.82;;;18.70;82.60;;;;;;5072506;28;20081;-60
2021/08/25 04:49:05;;;;;;;31.50;6.45;;;18.70;82.60;;;;;;5065643;28;20101;-60
2021/08/25 04:51:30;;;;;;;38.22;4.90;;;18.70;82.50;;;;;;5047042;28;20530;-60
2021/08/25 04:53:56;;;;;;;23.67;5.15;;;18.70;82.60;;;;;;5043986;28;20060;-60
2021/08/25 04:56:21;;;;;;;23.23;4.95;;;18.70;82.70;;;;;;5045161;28;20063;-60
2021/08/25 04:58:47;;;;;;;30.08;5.63;;;18.60;82.60;;;;;;5074611;28;20039;-60
2021/08/25 05:01:12;;;;;;;29.92;4.22;;;18.60;83.20;;;;;;5069062;28;20495;-60
2021/08/25 05:03:38;;;;;;;22.98;4.18;;;18.60;82.60;;;;;;5064930;28;20071;-60
2021/08/25 05:06:10;;;;;;;23.73;4.18;;;18.60;82.60;;;;;;5065882;28;20104;-60
2021/08/25 05:08:36;;;;;;;20.48;4.50;;;18.60;82.60;;;;;;5047803;28;20024;-60
2021/08/25 05:11:01;;;;;;;16.88;4.10;;;18.60;82.60;;;;;;5042389;28;20016;-60
2021/08/25 05:13:27;;;;;;;14.57;4.03;;;18.60;82.60;;;;;;5046883;28;20116;-60
2021/08/25 05:15:52;;;;;;;14.57;4.00;;;18.60;82.60;;;;;;5053079;28;20033;-60
2021/08/25 05:18:18;;;;;;;12.55;3.85;;;18.60;82.60;;;;;;5062753;28;20404;-60
2021/08/25 05:20:43;;;;;;;15.07;3.78;;;18.60;82.60;;;;;;5064621;28;20384;-60
2021/08/25 05:23:09;;;;;;;19.25;3.53;;;18.60;82.50;;;;;;5065261;28;20043;-60
2021/08/25 05:25:34;;;;;;;15.93;4.07;;;18.60;82.50;;;;;;5028458;28;20087;-60
2021/08/25 05:28:00;;;;;;;11.30;3.08;;;18.50;82.40;;;;;;5059230;28;20082;-60
2021/08/25 05:30:25;;;;;;;7.22;2.90;;;18.50;82.40;;;;;;5033173;28;20076;-60
2021/08/25 05:32:52;;;;;;;19.33;3.13;;;18.50;82.40;;;;;;5047261;28;20156;-60
2021/08/25 05:35:21;;;;;;;12.82;3.70;;;18.50;82.40;;;;;;5062821;28;20031;-60
2021/08/25 05:37:47;;;;;;;11.60;3.50;;;18.50;82.40;;;;;;5058800;28;20032;-60
2021/08/25 05:40:13;;;;;;;13.25;3.15;;;18.50;82.40;;;;;;5068093;28;20031;-60
2021/08/25 05:42:40;;;;;;;16.13;3.58;;;18.50;82.40;;;;;;5041691;28;20072;-60
2021/08/25 05:45:06;;;;;;;9.45;3.13;;;18.50;82.40;;;;;;5045448;28;20090;-60
2021/08/25 05:47:31;;;;;;;11.27;3.05;;;18.70;82.50;;;;;;5067262;28;20013;-60
2021/08/25 05:49:57;;;;;;;7.53;2.88;;;18.50;82.40;;;;;;5024692;28;20476;-60
2021/08/25 05:52:22;;;;;;;5.97;3.28;;;18.50;82.30;;;;;;5045467;28;20048;-60
2021/08/25 05:54:48;;;;;;;6.22;2.72;;;18.50;82.30;;;;;;5045027;28;20044;-60
2021/08/25 05:57:14;;;;;;;5.70;3.03;;;18.50;82.20;;;;;;5058633;28;20020;-60
2021/08/25 05:59:39;;;;;;;8.15;2.70;;;18.50;82.20;;;;;;5028690;28;20119;-60
2021/08/25 06:02:05;;;;;;;5.45;2.50;;;18.50;82.20;;;;;;5062311;28;20120;-60
2021/08/25 06:04:30;;;;;;;6.60;2.47;;;18.50;82.20;;;;;;5061065;28;20044;-60
2021/08/25 06:06:56;;;;;;;5.78;2.70;;;18.50;82.10;;;;;;5040620;28;20507;-60
2021/08/25 06:09:21;;;;;;;6.68;2.30;;;18.50;82.10;;;;;;5056508;28;20031;-59
2021/08/25 06:11:47;;;;;;;8.45;2.55;;;18.50;82.10;;;;;;5038247;28;20113;-60
2021/08/25 06:14:12;;;;;;;6.32;2.55;;;18.50;82.10;;;;;;5061265;28;20040;-60
2021/08/25 06:16:38;;;;;;;9.60;2.40;;;18.50;82.10;;;;;;5059469;28;20044;-59
2021/08/25 06:19:04;;;;;;;5.63;2.25;;;18.60;82.10;;;;;;5062394;28;20383;-60
2021/08/25 06:21:30;;;;;;;8.65;2.60;;;18.50;82.00;;;;;;5007505;28;20046;-60
2021/08/25 06:23:56;;;;;;;7.10;2.50;;;18.50;82.20;;;;;;5064676;28;20133;-60
2021/08/25 06:26:21;;;;;;;7.68;2.65;;;18.50;82.00;;;;;;5059029;28;20108;-61
2021/08/25 06:28:47;;;;;;;5.35;2.22;;;18.60;82.00;;;;;;5062685;28;20036;-60
2021/08/25 06:31:12;;;;;;;6.55;2.30;;;18.60;81.90;;;;;;5041477;28;20199;-60
2021/08/25 06:33:38;;;;;;;5.03;2.42;;;18.60;81.80;;;;;;5042714;28;20063;-60
2021/08/25 06:36:04;;;;;;;7.55;2.58;;;18.60;81.80;;;;;;5059257;28;20020;-60
2021/08/25 06:38:29;;;;;;;4.30;2.15;;;18.60;81.70;;;;;;5064450;28;20345;-61
2021/08/25 06:40:55;;;;;;;7.15;2.72;;;18.60;81.70;;;;;;5032184;28;20019;-61
2021/08/25 06:43:20;;;;;;;6.50;2.63;;;18.60;81.70;;;;;;5070253;28;20095;-60
2021/08/25 06:45:46;;;;;;;11.45;3.08;;;18.60;81.70;;;;;;5030059;28;20055;-60
2021/08/25 06:48:11;;;;;;;7.53;2.58;;;18.60;81.60;;;;;;5029800;28;20025;-60
2021/08/25 06:50:37;;;;;;;4.72;2.20;;;18.60;81.50;;;;;;5045737;28;20031;-60
2021/08/25 06:53:02;;;;;;;5.28;2.40;;;18.60;81.50;;;;;;5060707;28;20506;-60
2021/08/25 06:55:28;;;;;;;3.60;2.40;;;18.60;81.40;;;;;;5015149;28;20037;-60
2021/08/25 06:57:53;;;;;;;9.77;2.70;;;18.70;81.50;;;;;;5062924;28;20574;-60
2021/08/25 07:00:19;;;;;;;7.85;2.78;;;18.70;81.40;;;;;;5060549;28;20840;-60
2021/08/25 07:02:45;;;;;;;13.52;2.67;;;18.70;81.40;;;;;;5036110;28;20590;-60
2021/08/25 07:05:10;;;;;;;21.10;3.40;;;18.70;81.30;;;;;;5038897;28;20218;-60
2021/08/25 07:07:36;;;;;;;12.57;3.10;;;18.70;81.30;;;;;;5060490;28;20032;-60
2021/08/25 07:10:01;;;;;;;10.48;2.70;;;18.60;81.30;;;;;;5040610;28;20036;-60
2021/08/25 07:12:27;;;;;;;6.78;2.33;;;18.60;81.40;;;;;;5035381;28;21277;-60
2021/08/25 07:14:54;;;;;;;7.97;2.35;;;18.60;81.50;;;;;;5048182;28;20043;-60
2021/08/25 07:17:19;;;;;;;5.50;2.00;;;18.60;81.50;;;;;;5044717;28;20064;-60
2021/08/25 07:19:45;;;;;;;4.85;2.10;;;18.50;81.70;;;;;;5044680;28;20714;-64
2021/08/25 07:22:10;;;;;;;4.15;2.03;;;18.50;81.80;;;;;;5023382;28;20024;-60
2021/08/25 07:24:36;;;;;;;5.85;2.20;;;18.50;82.00;;;;;;5011372;28;20029;-60
2021/08/25 07:27:02;;;;;;;4.38;2.22;;;18.40;82.10;;;;;;5049824;28;20048;-60
2021/08/25 07:29:27;;;;;;;5.30;2.20;;;18.40;82.20;;;;;;5056629;28;20105;-60
2021/08/25 07:31:53;;;;;;;2.83;1.85;;;18.40;82.20;;;;;;5057478;28;20079;-60
2021/08/25 07:34:18;;;;;;;4.22;2.10;;;18.40;82.20;;;;;;5023040;28;20023;-60
2021/08/25 07:36:44;;;;;;;4.13;2.25;;;18.50;82.30;;;;;;5054964;28;20051;-60
2021/08/25 07:39:09;;;;;;;12.90;2.60;;;18.40;82.20;;;;;;5053440;28;20051;-59
2021/08/25 07:41:35;;;;;;;5.30;1.98;;;18.40;82.20;;;;;;5040645;28;20743;-60
2021/08/25 07:44:00;;;;;;;5.45;1.92;;;18.40;82.20;;;;;;5057083;28;20447;-63
2021/08/25 07:46:32;;;;;;;2.80;1.85;;;18.40;82.20;;;;;;5046933;28;20032;-60
2021/08/25 07:49:01;;;;;;;8.55;2.35;;;18.40;82.20;;;;;;5031189;28;20694;-62
2021/08/25 07:51:27;;;;;;;11.15;2.80;;;18.40;82.20;;;;;;5039363;28;20148;-63
2021/08/25 07:53:52;;;;;;;11.32;3.17;;;18.50;82.20;;;;;;5059864;28;20040;-63
2021/08/25 07:56:18;;;;;;;12.27;2.78;;;18.50;82.30;;;;;;5042587;28;20677;-60
2021/08/25 07:58:43;;;;;;;10.15;2.97;;;18.50;82.40;;;;;;5005997;28;20110;-60
2021/08/25 08:01:09;;;;;;;10.57;2.88;;;18.50;82.30;;;;;;5064442;28;20521;-63
2021/08/25 08:03:34;;;;;;;6.38;2.30;;;18.50;82.20;;;;;;5043958;28;20081;-60
2021/08/25 08:06:00;;;;;;;8.88;3.03;;;18.50;82.20;;;;;;5038061;28;20053;-60
2021/08/25 08:08:25;;;;;;;10.27;2.78;;;18.50;82.20;;;;;;5055088;28;20037;-60
2021/08/25 08:10:52;;;;;;;7.18;2.55;;;18.50;82.10;;;;;;5039748;28;20036;-60
2021/08/25 08:13:18;;;;;;;26.42;3.10;;;18.60;81.90;;;;;;5036216;28;20514;-60
2021/08/25 08:15:44;;;;;;;12.85;2.90;;;18.60;81.90;;;;;;5041031;28;20033;-60
2021/08/25 08:18:14;;;;;;;12.15;3.30;;;18.60;81.90;;;;;;5040033;28;20879;-60
2021/08/25 08:20:40;;;;;;;17.17;3.15;;;18.60;81.90;;;;;;5038994;28;20029;-60
2021/08/25 08:23:05;;;;;;;19.75;3.47;;;18.60;81.80;;;;;;5047760;28;20021;-60
2021/08/25 08:25:31;;;;;;;16.35;3.25;;;18.60;81.90;;;;;;5046382;28;20113;-60
2021/08/25 08:27:56;;;;;;;12.35;2.90;;;18.60;82.00;;;;;;5062521;28;20040;-60
2021/08/25 08:30:22;;;;;;;28.75;3.75;;;18.60;82.00;;;;;;5043745;28;20041;-60
2021/08/25 08:32:47;;;;;;;11.93;3.38;;;18.60;82.10;;;;;;5021424;28;20052;-60
2021/08/25 08:35:13;;;;;;;34.70;5.03;;;18.60;81.90;;;;;;5053605;28;20040;-60
2021/08/25 08:37:38;;;;;;;15.70;3.28;;;18.60;82.00;;;;;;5037736;28;20425;-60
2021/08/25 08:40:05;;;;;;;9.88;2.88;;;18.60;81.80;;;;;;5036493;28;20831;-60
2021/08/25 08:42:34;;;;;;;16.40;2.80;;;18.60;81.80;;;;;;5043918;28;20096;-60
2021/08/25 08:45:01;;;;;;;8.63;2.75;;;18.60;81.70;;;;;;5022153;28;20040;-60
2021/08/25 08:47:28;;;;;;;8.77;2.80;;;18.60;81.50;;;;;;5047216;28;20119;-60
2021/08/25 08:49:54;;;;;;;13.55;2.97;;;18.60;81.40;;;;;;5042346;28;20032;-60
2021/08/25 08:52:20;;;;;;;19.02;3.78;;;18.60;81.30;;;;;;5023794;28;20119;-60
2021/08/25 08:54:46;;;;;;;10.85;2.97;;;18.70;81.30;;;;;;5057377;28;20088;-60
2021/08/25 08:57:12;;;;;;;9.73;3.25;;;18.70;81.20;;;;;;5029611;28;20052;-60
2021/08/25 08:59:37;;;;;;;8.75;2.97;;;18.70;81.20;;;;;;5057658;28;20054;-60
2021/08/25 09:02:03;;;;;;;33.80;5.07;;;18.70;81.30;;;;;;5055034;28;20036;-60
2021/08/25 09:04:33;;;;;;;26.67;3.78;;;18.70;81.10;;;;;;5039212;28;20047;-60
2021/08/25 09:06:58;;;;;;;55.38;6.93;;;18.80;81.10;;;;;;5042646;28;20017;-60
2021/08/25 09:09:24;;;;;;;26.27;4.30;;;18.80;81.10;;;;;;5025002;28;20024;-60
2021/08/25 09:11:53;;;;;;;14.48;3.00;;;18.80;81.50;;;;;;5056691;28;20035;-60
2021/08/25 09:14:19;;;;;;;14.50;3.22;;;18.80;80.90;;;;;;5039258;28;20693;-60
2021/08/25 09:16:45;;;;;;;22.45;3.63;;;18.80;80.80;;;;;;5021693;28;20158;-60
2021/08/25 09:19:15;;;;;;;21.70;3.63;;;18.80;80.80;;;;;;5033355;28;20138;-60
2021/08/25 09:21:41;;;;;;;14.30;3.25;;;18.80;81.40;;;;;;5028245;28;20350;-60
2021/08/25 09:24:07;;;;;;;12.45;3.35;;;18.90;80.80;;;;;;5065838;28;20032;-60
2021/08/25 09:26:34;;;;;;;17.35;3.60;;;18.90;80.70;;;;;;5041677;28;20039;-59
2021/08/25 09:29:16;;;;;;;34.80;4.60;;;18.90;80.60;;;;;;5038923;28;20025;-60
2021/08/25 09:31:45;;;;;;;23.15;3.70;;;19.00;80.60;;;;;;5063037;28;20120;-60
2021/08/25 09:34:24;;;;;;;34.00;4.93;;;19.00;80.40;;;;;;5025191;28;20032;-60
2021/08/25 09:36:53;;;;;;;25.92;3.65;;;19.00;80.30;;;;;;5026683;28;20460;-60
2021/08/25 09:39:21;;;;;;;9.55;3.22;;;19.10;80.00;;;;;;5029962;28;20511;-60
2021/08/25 09:41:56;;;;;;;12.00;3.35;;;19.10;79.80;;;;;;5038631;28;20300;-60
2021/08/25 09:44:21;;;;;;;21.03;3.13;;;19.10;79.70;;;;;;5047403;28;20025;-61
2021/08/25 09:46:50;;;;;;;21.83;3.90;;;19.10;79.70;;;;;;5060006;28;20028;-60
2021/08/25 09:49:16;;;;;;;12.30;3.17;;;19.20;79.90;;;;;;5044971;28;20040;-60
2021/08/25 09:51:41;;;;;;;14.48;3.35;;;19.20;79.50;;;;;;5034984;28;20047;-60
2021/08/25 09:54:11;;;;;;;8.95;3.53;;;19.20;79.40;;;;;;5034383;28;20082;-60
2021/08/25 09:56:38;;;;;;;20.80;3.65;;;19.20;79.30;;;;;;5024920;28;20221;-61
2021/08/25 09:59:08;;;;;;;17.80;3.53;;;19.30;79.50;;;;;;5053547;28;20295;-60
2021/08/25 10:01:34;;;;;;;17.20;3.60;;;19.30;79.50;;;;;;5035598;28;20029;-60
2021/08/25 10:04:04;;;;;;;21.48;4.82;;;19.30;79.50;;;;;;5040874;28;20457;-60
2021/08/25 10:06:29;;;;;;;13.40;2.75;;;19.30;79.20;;;;;;5027950;28;20324;-60
2021/08/25 10:08:55;;;;;;;13.98;2.78;;;19.40;79.20;;;;;;5058578;28;20031;-61
2021/08/25 10:11:27;;;;;;;9.80;3.33;;;19.40;79.20;;;;;;5055900;28;20021;-60
2021/08/25 10:13:52;;;;;;;15.30;3.13;;;19.40;79.20;;;;;;5035186;28;20051;-60
2021/08/25 10:16:40;;;;;;;12.35;3.00;;;19.40;79.10;;;;;;5045807;28;20025;-60
2021/08/25 10:19:23;;;;;;;11.93;3.30;;;19.50;79.20;;;;;;5040772;28;20594;-60
2021/08/25 10:21:49;;;;;;;28.42;5.28;;;19.50;79.00;;;;;;5043069;28;20032;-60
2021/08/25 10:24:14;;;;;;;35.03;4.32;;;19.50;79.10;;;;;;5020558;28;20036;-60
2021/08/25 10:27:03;;;;;;;25.27;3.90;;;19.50;79.10;;;;;;5043127;28;20090;-60
2021/08/25 10:29:29;;;;;;;18.63;3.67;;;19.50;79.00;;;;;;5025699;28;20021;-60
2021/08/25 10:31:56;;;;;;;14.15;3.88;;;19.60;79.10;;;;;;5039751;28;20073;-60
2021/08/25 10:34:25;;;;;;;16.27;3.47;;;19.60;79.00;;;;;;5053700;28;20024;-60
2021/08/25 10:36:51;;;;;;;16.60;3.67;;;19.60;78.60;;;;;;5045327;28;20379;-60
2021/08/25 10:39:29;;;;;;;19.10;4.00;;;19.60;78.40;;;;;;5021897;28;20684;-61
2021/08/25 10:41:57;;;;;;;27.45;3.40;;;19.70;78.40;;;;;;5030992;28;20109;-60
2021/08/25 10:44:41;;;;;;;21.33;3.70;;;19.70;78.30;;;;;;5023114;28;20136;-60
2021/08/25 10:47:10;;;;;;;47.20;6.45;;;19.70;78.40;;;;;;5065122;28;20526;-60
2021/08/25 10:49:38;;;;;;;25.70;5.07;;;19.70;78.80;;;;;;5059942;28;20041;-60
2021/08/25 10:52:15;;;;;;;28.30;4.22;;;19.70;78.10;;;;;;5019129;28;20024;-60
2021/08/25 10:54:48;;;;;;;17.88;3.47;;;19.80;78.00;;;;;;5035973;28;20210;-60
2021/08/25 10:57:15;;;;;;;29.65;4.35;;;19.80;78.00;;;;;;5039399;28;20023;-59
2021/08/25 10:59:41;;;;;;;28.85;3.92;;;19.80;77.80;;;;;;5052479;28;21556;-60
2021/08/25 11:02:07;;;;;;;23.48;4.13;;;19.80;77.80;;;;;;5031133;28;20055;-63
2021/08/25 11:04:32;;;;;;;20.05;3.40;;;19.80;77.60;;;;;;5016081;28;20028;-60
2021/08/25 11:07:04;;;;;;;26.73;4.32;;;19.90;77.60;;;;;;5019137;28;20111;-59
2021/08/25 11:09:42;;;;;;;16.05;4.53;;;19.90;77.60;;;;;;5034833;28;20532;-60
2021/08/25 11:12:10;;;;;;;14.45;3.78;;;19.90;77.70;;;;;;5020512;28;20390;-59
2021/08/25 11:14:40;;;;;;;9.38;3.78;;;19.90;77.60;;;;;;5038395;28;20030;-60
2021/08/25 11:17:17;;;;;;;21.13;3.10;;;19.90;77.50;;;;;;5040602;28;20152;-62
2021/08/25 11:19:45;;;;;;;12.10;3.60;;;19.90;77.30;;;;;;5019303;28;20043;-60
2021/08/25 11:22:16;;;;;;;26.42;4.97;;;19.90;77.30;;;;;;5050921;28;20146;-60
2021/08/25 11:24:44;;;;;;;39.17;6.78;;;19.90;77.50;;;;;;5029217;28;20053;-60
2021/08/25 11:27:22;;;;;;;52.65;7.43;;;19.90;77.70;;;;;;5018889;28;20033;-60
2021/08/25 11:30:11;;;;;;;44.05;6.97;;;20.10;77.80;;;;;;5033701;28;20029;-60
2021/08/25 11:32:52;;;;;;;30.58;4.90;;;19.90;77.70;;;;;;5032168;28;20036;-60
2021/08/25 11:35:25;;;;;;;34.78;5.53;;;19.90;77.50;;;;;;5029737;28;20611;-60
2021/08/25 11:37:51;;;;;;;47.28;6.00;;;20.00;77.50;;;;;;5051634;28;20039;-60
2021/08/25 11:40:16;;;;;;;49.85;5.78;;;20.00;77.60;;;;;;5040405;28;20100;-60
2021/08/25 11:42:42;;;;;;;40.05;4.78;;;19.90;77.60;;;;;;5050868;28;20048;-60
2021/08/25 11:45:32;;;;;;;21.30;4.22;;;20.00;77.50;;;;;;5050969;28;20037;-60
2021/08/25 11:47:58;;;;;;;52.72;7.15;;;19.90;77.10;;;;;;5051999;28;20379;-60
2021/08/25 11:50:25;;;;;;;40.50;5.88;;;19.90;77.20;;;;;;5006347;28;20296;-60
2021/08/25 11:52:51;;;;;;;34.10;5.55;;;19.90;77.20;;;;;;5017766;28;20043;-60
2021/08/25 11:55:16;;;;;;;55.40;8.63;;;20.00;77.30;;;;;;5008834;28;20036;-60
2021/08/25 11:57:44;;;;;;;43.50;6.55;;;20.00;77.30;;;;;;5040200;28;20025;-60
2021/08/25 12:00:11;;;;;;;41.33;5.47;;;20.10;77.30;;;;;;5051894;28;20028;-61
2021/08/25 12:03:09;;;;;;;62.97;6.72;;;20.10;77.10;;;;;;5030962;28;20033;-60
2021/08/25 12:05:36;;;;;;;75.10;7.75;;;20.10;77.10;;;;;;5000063;28;20048;-60
2021/08/25 12:08:14;;;;;;;38.95;5.50;;;20.10;77.30;;;;;;5056670;28;20016;-60
2021/08/25 12:10:40;;;;;;;28.00;4.72;;;20.20;77.00;;;;;;5032371;28;20112;-60
2021/08/25 12:13:07;;;;;;;39.50;5.63;;;20.20;76.60;;;;;;5053946;28;20064;-60
2021/08/25 12:15:49;;;;;;;42.03;5.70;;;20.10;76.50;;;;;;5048078;28;20051;-60
2021/08/25 12:18:15;;;;;;;53.38;7.00;;;20.20;76.60;;;;;;5063093;28;20530;-60
2021/08/25 12:20:46;;;;;;;64.07;7.80;;;20.30;76.50;;;;;;5033779;28;20048;-60
2021/08/25 12:23:13;;;;;;;48.30;7.45;;;20.30;76.20;;;;;;5029812;28;20032;-60
2021/08/25 12:25:43;;;;;;;90.18;9.77;;;20.30;76.10;;;;;;5025063;28;20035;-60
2021/08/25 12:28:10;;;;;;;66.25;7.50;;;20.30;75.90;;;;;;5027953;28;20144;-60
2021/08/25 12:30:37;;;;;;;53.38;7.53;;;20.30;75.90;;;;;;5022408;28;20025;-60
2021/08/25 12:33:05;;;;;;;45.78;6.63;;;20.40;75.90;;;;;;5019040;28;20090;-60
2021/08/25 12:35:34;;;;;;;39.80;6.63;;;20.40;75.60;;;;;;5023093;28;20033;-60
2021/08/25 12:38:00;;;;;;;22.25;4.95;;;20.40;75.20;;;;;;5037567;28;20167;-60
2021/08/25 12:40:26;;;;;;;22.40;3.97;;;20.40;75.00;;;;;;5052807;28;20179;-60